createdAt,value
2022-09-10T00:01:37.576Z,88.31
2022-09-10T00:04:14.740Z,88.28
2022-09-10T00:06:44.167Z,88.36
2022-09-10T00:09:13.729Z,88.46
2022-09-10T00:11:41.999Z,88.53
2022-09-10T00:14:19.545Z,88.50
2022-09-10T00:16:48.694Z,88.56
2022-09-10T00:19:17.811Z,88.63
2022-09-10T00:21:45.597Z,88.64
2022-09-10T00:24:13.959Z,88.62
2022-09-10T00:26:42.050Z,88.69
2022-09-10T00:29:12.882Z,88.81
2022-09-10T00:31:40.750Z,88.80
2022-09-10T00:34:09.176Z,88.82
2022-09-10T00:36:43.856Z,88.89
2022-09-10T00:39:15.933Z,88.87
2022-09-10T00:41:47.098Z,89.01
2022-09-10T00:44:39.705Z,88.97
2022-09-10T00:47:26.031Z,89.06
2022-09-10T00:50:30.604Z,89.11
2022-09-10T00:53:04.426Z,89.07
2022-09-10T00:55:38.523Z,89.08
2022-09-10T00:58:10.401Z,89.04
2022-09-10T01:00:41.297Z,89.06
2022-09-10T01:03:12.764Z,89.08
2022-09-10T01:05:42.373Z,88.99
2022-09-10T01:08:16.767Z,88.99
2022-09-10T01:11:19.604Z,89.05
2022-09-10T01:14:09.772Z,88.99
2022-09-10T01:17:10.945Z,89.09
2022-09-10T01:20:09.165Z,89.05
2022-09-10T01:23:18.070Z,89.07
2022-09-10T01:26:10.168Z,88.99
2022-09-10T01:28:54.383Z,88.71
2022-09-10T01:31:37.894Z,88.69
2022-09-10T01:34:21.842Z,88.84
2022-09-10T01:36:55.187Z,88.74
2022-09-10T01:39:25.299Z,88.68
2022-09-10T01:41:54.478Z,88.72
2022-09-10T01:45:01.237Z,88.84
2022-09-10T01:47:58.455Z,88.72
2022-09-10T01:51:00.415Z,88.51
2022-09-10T01:54:05.625Z,88.42
2022-09-10T01:56:46.231Z,88.70
2022-09-10T01:59:45.287Z,88.54
2022-09-10T02:02:22.712Z,88.72
2022-09-10T02:04:52.225Z,88.87
2022-09-10T02:07:23.529Z,88.97
2022-09-10T02:09:54.870Z,88.84
2022-09-10T02:12:23.871Z,88.66
2022-09-10T02:15:28.696Z,88.52
2022-09-10T02:18:21.052Z,88.72
2022-09-10T02:20:55.599Z,88.91
2022-09-10T02:23:31.780Z,88.80
2022-09-10T02:25:59.636Z,88.83
2022-09-10T02:28:30.195Z,89.23
2022-09-10T02:30:58.058Z,89.29
2022-09-10T02:33:27.564Z,89.30
2022-09-10T02:35:55.212Z,89.38
2022-09-10T02:38:24.209Z,89.33
2022-09-10T02:40:51.966Z,89.39
2022-09-10T02:43:20.140Z,89.38
2022-09-10T02:45:48.741Z,89.50
2022-09-10T02:48:18.268Z,89.46
2022-09-10T02:50:46.273Z,89.25
2022-09-10T02:53:14.025Z,89.14
2022-09-10T02:55:46.281Z,89.32
2022-09-10T02:58:16.556Z,89.34
2022-09-10T03:00:45.673Z,89.38
2022-09-10T03:03:13.915Z,89.37
2022-09-10T03:05:41.704Z,89.44
2022-09-10T03:08:09.844Z,89.37
2022-09-10T03:10:38.463Z,89.36
2022-09-10T03:13:06.918Z,89.29
2022-09-10T03:15:34.709Z,89.15
2022-09-10T03:18:02.465Z,89.18
2022-09-10T03:20:31.168Z,89.28
2022-09-10T03:22:59.268Z,89.19
2022-09-10T03:25:26.940Z,89.18
2022-09-10T03:27:58.154Z,89.29
2022-09-10T03:30:26.705Z,89.28
2022-09-10T03:32:54.725Z,89.20
2022-09-10T03:35:22.631Z,89.07
2022-09-10T03:37:50.441Z,89.09
2022-09-10T03:40:19.161Z,88.99
2022-09-10T03:42:46.853Z,89.08
2022-09-10T03:45:16.052Z,89.07
2022-09-10T03:47:44.557Z,89.08
2022-09-10T03:50:12.740Z,89.16
2022-09-10T03:52:42.321Z,89.05
2022-09-10T03:55:10.434Z,88.94
2022-09-10T03:57:41.631Z,89.16
2022-09-10T04:00:13.567Z,89.11
2022-09-10T04:02:46.485Z,89.13
2022-09-10T04:05:14.675Z,89.22
2022-09-10T04:07:42.938Z,89.17
2022-09-10T04:10:10.964Z,89.38
2022-09-10T04:12:40.198Z,89.42
2022-09-10T04:15:09.299Z,89.53
2022-09-10T04:17:37.621Z,89.52
2022-09-10T04:20:06.079Z,89.44
2022-09-10T04:22:34.580Z,89.47
2022-09-10T04:25:02.455Z,89.48
2022-09-10T04:27:30.999Z,89.32
2022-09-10T04:29:58.734Z,89.32
2022-09-10T04:32:26.494Z,89.20
2022-09-10T04:34:55.013Z,89.12
2022-09-10T04:37:22.881Z,89.04
2022-09-10T04:39:51.175Z,88.84
2022-09-10T04:42:20.319Z,88.78
2022-09-10T04:44:49.200Z,88.94
2022-09-10T04:47:18.323Z,89.10
2022-09-10T04:49:47.321Z,89.12
2022-09-10T04:52:17.162Z,89.16
2022-09-10T04:54:45.430Z,89.12
2022-09-10T04:57:13.601Z,89.05
2022-09-10T04:59:41.738Z,89.17
2022-09-10T05:02:09.506Z,89.16
2022-09-10T05:04:38.940Z,89.10
2022-09-10T05:07:07.043Z,89.13
2022-09-10T05:09:34.829Z,89.11
2022-09-10T05:12:05.156Z,89.08
2022-09-10T05:14:33.896Z,89.04
2022-09-10T05:17:01.611Z,89.00
2022-09-10T05:19:30.832Z,89.01
2022-09-10T05:22:03.974Z,88.82
2022-09-10T05:24:34.355Z,88.83
2022-09-10T05:27:04.205Z,88.78
2022-09-10T05:29:32.169Z,88.70
2022-09-10T05:32:00.182Z,88.47
2022-09-10T05:34:27.966Z,88.36
2022-09-10T05:36:56.366Z,88.33
2022-09-10T05:39:24.408Z,88.47
2022-09-10T05:41:52.287Z,88.67
2022-09-10T05:44:20.085Z,88.62
2022-09-10T05:46:48.726Z,88.55
2022-09-10T05:49:17.120Z,88.26
2022-09-10T05:51:44.836Z,88.34
2022-09-10T05:54:12.801Z,88.59
2022-09-10T05:56:41.307Z,88.65
2022-09-10T05:59:10.654Z,88.53
2022-09-10T06:01:39.141Z,88.46
2022-09-10T06:04:07.545Z,88.47
2022-09-10T06:06:35.792Z,88.60
2022-09-10T06:09:08.015Z,88.49
2022-09-10T06:11:48.852Z,88.52
2022-09-10T06:14:17.229Z,88.65
2022-09-10T06:16:45.416Z,88.60
2022-09-10T06:19:14.888Z,88.49
2022-09-10T06:21:42.622Z,88.26
2022-09-10T06:24:10.467Z,88.12
2022-09-10T06:26:39.325Z,88.07
2022-09-10T06:29:11.665Z,88.00
2022-09-10T06:31:41.439Z,88.00
2022-09-10T06:34:10.406Z,88.11
2022-09-10T06:36:38.428Z,88.00
2022-09-10T06:39:07.943Z,87.91
2022-09-10T06:41:49.033Z,88.01
2022-09-10T06:44:40.365Z,88.02
2022-09-10T06:48:01.092Z,88.01
2022-09-10T06:50:05.958Z,88.17
2022-09-10T06:52:37.668Z,88.15
2022-09-10T06:55:07.114Z,88.37
2022-09-10T06:57:40.911Z,88.32
2022-09-10T07:00:10.141Z,88.33
2022-09-10T07:02:40.927Z,88.33
2022-09-10T07:05:09.747Z,88.28
2022-09-10T07:07:38.821Z,88.25
2022-09-10T07:10:08.961Z,88.19
2022-09-10T07:12:36.840Z,88.20
2022-09-10T07:15:07.687Z,88.23
2022-09-10T07:17:36.210Z,88.26
2022-09-10T07:20:04.664Z,88.05
2022-09-10T07:23:01.276Z,88.05
2022-09-10T07:25:30.208Z,87.95
2022-09-10T07:28:05.722Z,87.66
2022-09-10T07:30:35.837Z,87.64
2022-09-10T07:33:03.938Z,87.45
2022-09-10T07:35:36.437Z,87.39
2022-09-10T07:38:05.802Z,87.24
2022-09-10T07:40:36.275Z,87.21
2022-09-10T07:43:03.977Z,86.76
2022-09-10T07:45:31.689Z,86.93
2022-09-10T07:48:02.211Z,86.96
2022-09-10T07:50:32.165Z,86.73
2022-09-10T07:53:00.301Z,86.73
2022-09-10T07:55:29.055Z,86.85
2022-09-10T07:58:00.006Z,86.64
2022-09-10T08:00:29.172Z,86.26
2022-09-10T08:02:57.364Z,86.26
2022-09-10T08:05:28.746Z,85.93
2022-09-10T08:07:57.159Z,85.62
2022-09-10T08:10:27.207Z,85.56
2022-09-10T08:12:54.871Z,84.93
2022-09-10T08:15:23.402Z,85.05
2022-09-10T08:17:51.193Z,85.04
2022-09-10T08:20:19.586Z,84.66
2022-09-10T08:22:49.610Z,84.85
2022-09-10T08:25:20.946Z,84.40
2022-09-10T08:27:48.992Z,84.86
2022-09-10T08:30:16.934Z,85.02
2022-09-10T08:32:45.923Z,84.42
2022-09-10T08:35:14.503Z,84.03
2022-09-10T08:37:42.600Z,83.70
2022-09-10T08:40:13.354Z,83.62
2022-09-10T08:42:49.329Z,84.31
2022-09-10T08:45:29.135Z,84.21
2022-09-10T08:48:18.621Z,83.64
2022-09-10T08:50:56.126Z,83.23
2022-09-10T08:53:25.881Z,82.74
2022-09-10T08:56:08.827Z,82.19
2022-09-10T08:59:05.027Z,82.57
2022-09-10T09:02:16.603Z,82.44
2022-09-10T09:05:21.668Z,82.13
2022-09-10T09:07:52.399Z,82.22
2022-09-10T09:10:26.357Z,81.91
2022-09-10T09:13:06.138Z,81.59
2022-09-10T09:15:51.759Z,81.49
2022-09-10T09:19:09.522Z,81.91
2022-09-10T09:21:54.415Z,81.02
2022-09-10T09:24:37.067Z,81.33
2022-09-10T09:27:12.743Z,80.64
2022-09-10T09:29:56.012Z,80.05
2022-09-10T09:32:25.005Z,79.27
2022-09-10T09:34:58.753Z,78.93
2022-09-10T09:37:31.283Z,79.98
2022-09-10T09:40:31.257Z,79.84
2022-09-10T09:43:13.053Z,80.39
2022-09-10T09:45:47.649Z,80.20
2022-09-10T09:48:20.548Z,80.51
2022-09-10T09:50:55.290Z,80.17
2022-09-10T09:53:27.249Z,80.49
2022-09-10T09:56:02.304Z,80.31
2022-09-10T09:58:37.270Z,79.86
2022-09-10T10:01:05.006Z,79.69
2022-09-10T10:03:35.422Z,80.03
2022-09-10T10:06:11.458Z,79.16
2022-09-10T10:08:42.679Z,78.96
2022-09-10T10:11:17.754Z,78.47
2022-09-10T10:13:48.370Z,77.66
2022-09-10T10:16:26.819Z,78.10
2022-09-10T10:18:54.537Z,78.33
2022-09-10T10:21:31.796Z,77.69
2022-09-10T10:24:00.929Z,77.36
2022-09-10T10:26:33.059Z,77.45
2022-09-10T10:29:20.200Z,76.88
2022-09-10T10:31:51.199Z,76.65
2022-09-10T10:34:45.207Z,77.09
2022-09-10T10:37:27.799Z,76.87
2022-09-10T10:40:17.688Z,77.63
2022-09-10T10:43:22.934Z,77.56
2022-09-10T10:46:18.168Z,76.69
2022-09-10T10:49:19.891Z,77.08
2022-09-10T10:52:38.702Z,75.89
2022-09-10T10:55:06.632Z,76.10
2022-09-10T10:58:54.007Z,76.06
2022-09-10T11:01:26.741Z,76.27
2022-09-10T11:04:19.008Z,76.44
2022-09-10T11:06:57.298Z,75.56
2022-09-10T11:09:33.397Z,75.29
2022-09-10T11:12:08.626Z,74.42
2022-09-10T11:14:51.599Z,74.14
2022-09-10T11:17:36.143Z,74.39
2022-09-10T11:20:29.974Z,74.66
2022-09-10T11:23:20.361Z,74.57
2022-09-10T11:26:02.386Z,74.83
2022-09-10T11:29:08.001Z,74.71
2022-09-10T11:31:53.585Z,73.74
2022-09-10T11:34:41.428Z,73.92
2022-09-10T11:37:33.868Z,73.49
2022-09-10T11:40:12.350Z,71.76
2022-09-10T11:42:46.006Z,71.81
2022-09-10T11:45:42.695Z,71.20
2022-09-10T11:48:23.570Z,70.02
2022-09-10T11:51:00.075Z,69.90
2022-09-10T11:53:29.105Z,71.83
2022-09-10T11:56:05.079Z,70.85
2022-09-10T11:59:08.616Z,70.87
2022-09-10T12:02:14.654Z,71.48
2022-09-10T12:05:04.583Z,70.05
2022-09-10T12:08:04.613Z,71.11
2022-09-10T12:10:41.001Z,71.97
2022-09-10T12:13:13.535Z,72.41
2022-09-10T12:16:05.717Z,72.81
2022-09-10T12:18:45.087Z,72.43
2022-09-10T12:21:48.628Z,73.12
2022-09-10T12:24:37.763Z,73.98
2022-09-10T12:27:07.250Z,73.82
2022-09-10T12:29:40.798Z,74.25
2022-09-10T12:32:22.008Z,73.15
2022-09-10T12:35:31.494Z,73.32
2022-09-10T12:38:47.634Z,74.20
2022-09-10T12:41:21.379Z,73.07
2022-09-10T12:43:48.996Z,73.39
2022-09-10T12:46:20.027Z,73.57
2022-09-10T12:48:51.061Z,72.59
2022-09-10T12:51:39.977Z,72.87
2022-09-10T12:54:46.957Z,73.03
2022-09-10T12:58:06.207Z,71.92
2022-09-10T13:01:08.229Z,72.58
2022-09-10T13:03:36.417Z,72.62
2022-09-10T13:06:07.626Z,72.32
2022-09-10T13:08:42.354Z,72.59
2022-09-10T13:11:23.808Z,72.63
2022-09-10T13:14:00.912Z,72.92
2022-09-10T13:16:28.970Z,71.82
2022-09-10T13:19:19.341Z,71.79
2022-09-10T13:21:48.165Z,71.95
2022-09-10T13:24:34.373Z,72.09
2022-09-10T13:27:17.478Z,72.48
2022-09-10T13:29:53.558Z,72.94
2022-09-10T13:32:38.634Z,72.07
2022-09-10T13:35:21.237Z,72.17
2022-09-10T13:38:29.629Z,70.98
2022-09-10T13:41:18.943Z,70.79
2022-09-10T13:44:28.368Z,69.98
2022-09-10T13:47:03.302Z,69.47
2022-09-10T13:49:52.062Z,69.02
2022-09-10T13:52:29.121Z,69.06
2022-09-10T13:54:59.586Z,68.31
2022-09-10T13:57:38.704Z,68.07
2022-09-10T14:00:20.671Z,68.38
2022-09-10T14:02:53.461Z,69.23
2022-09-10T14:05:50.706Z,68.86
2022-09-10T14:08:49.521Z,70.22
2022-09-10T14:11:30.068Z,69.35
2022-09-10T14:14:30.616Z,69.32
2022-09-10T14:17:06.995Z,69.53
2022-09-10T14:19:49.363Z,69.11
2022-09-10T14:22:25.332Z,69.72
2022-09-10T14:25:04.089Z,69.36
2022-09-10T14:27:35.690Z,69.67
2022-09-10T14:30:27.111Z,70.36
2022-09-10T14:32:55.336Z,69.98
2022-09-10T14:35:39.412Z,69.55
2022-09-10T14:38:34.321Z,68.80
2022-09-10T14:41:19.333Z,68.13
2022-09-10T14:43:47.290Z,67.96
2022-09-10T14:47:12.736Z,67.03
2022-09-10T14:49:41.814Z,64.44
2022-09-10T14:52:11.762Z,64.40
2022-09-10T14:54:39.498Z,64.85
2022-09-10T14:57:14.706Z,65.63
2022-09-10T14:59:46.626Z,65.56
2022-09-10T15:02:24.299Z,66.04
2022-09-10T15:04:52.285Z,65.57
2022-09-10T15:07:20.381Z,65.91
2022-09-10T15:09:48.041Z,66.10
2022-09-10T15:12:26.456Z,65.35
2022-09-10T15:14:54.528Z,66.49
2022-09-10T15:17:22.159Z,66.32
2022-09-10T15:19:50.011Z,65.17
2022-09-10T15:22:27.972Z,65.60
2022-09-10T15:25:12.310Z,67.14
2022-09-10T15:27:39.960Z,66.60
2022-09-10T15:30:08.184Z,66.56
2022-09-10T15:32:35.823Z,66.71
2022-09-10T15:35:05.149Z,67.31
2022-09-10T15:37:33.065Z,66.25
2022-09-10T15:40:01.170Z,65.25
2022-09-10T15:42:30.729Z,64.32
2022-09-10T15:44:58.373Z,63.08
2022-09-10T15:47:27.426Z,63.34
2022-09-10T15:49:55.157Z,62.62
2022-09-10T15:52:22.855Z,62.83
2022-09-10T15:54:50.580Z,62.97
2022-09-10T15:57:18.216Z,63.24
2022-09-10T15:59:45.850Z,64.90
2022-09-10T16:02:13.463Z,65.33
2022-09-10T16:04:43.031Z,66.03
2022-09-10T16:07:11.461Z,66.88
2022-09-10T16:09:39.438Z,66.56
2022-09-10T16:12:07.301Z,66.78
2022-09-10T16:14:35.110Z,66.76
2022-09-10T16:17:10.319Z,66.91
2022-09-10T16:19:38.793Z,67.83
2022-09-10T16:22:06.757Z,68.22
2022-09-10T16:24:34.957Z,67.56
2022-09-10T16:27:02.904Z,67.41
2022-09-10T16:29:32.465Z,67.24
2022-09-10T16:32:00.271Z,66.99
2022-09-10T16:34:27.993Z,66.83
2022-09-10T16:36:55.799Z,67.67
2022-09-10T16:39:23.439Z,68.19
2022-09-10T16:41:51.146Z,67.65
2022-09-10T16:44:19.409Z,67.72
2022-09-10T16:46:47.274Z,67.55
2022-09-10T16:49:18.455Z,67.28
2022-09-10T16:51:49.211Z,67.49
2022-09-10T16:54:21.297Z,67.45
2022-09-10T16:56:50.595Z,67.71
2022-09-10T16:59:22.821Z,67.95
2022-09-10T17:01:52.489Z,68.08
2022-09-10T17:04:27.785Z,68.08
2022-09-10T17:06:58.001Z,68.14
2022-09-10T17:09:26.221Z,68.19
2022-09-10T17:11:54.291Z,68.97
2022-09-10T17:14:22.291Z,69.44
2022-09-10T17:16:50.337Z,69.85
2022-09-10T17:19:23.377Z,70.44
2022-09-10T17:21:55.436Z,70.22
2022-09-10T17:24:26.577Z,70.28
2022-09-10T17:26:57.613Z,70.22
2022-09-10T17:29:26.166Z,70.57
2022-09-10T17:31:57.465Z,71.03
2022-09-10T17:34:26.456Z,71.19
2022-09-10T17:36:54.426Z,71.30
2022-09-10T17:39:22.076Z,71.64
2022-09-10T17:41:50.160Z,71.90
2022-09-10T17:44:18.061Z,72.16
2022-09-10T17:46:46.384Z,72.39
2022-09-10T17:49:15.587Z,72.39
2022-09-10T17:51:44.536Z,72.65
2022-09-10T17:54:13.543Z,72.68
2022-09-10T17:56:41.869Z,72.81
2022-09-10T17:59:14.181Z,73.07
2022-09-10T18:01:42.934Z,73.17
2022-09-10T18:04:15.659Z,73.35
2022-09-10T18:06:46.786Z,73.60
2022-09-10T18:09:17.086Z,73.95
2022-09-10T18:11:44.806Z,74.13
2022-09-10T18:14:18.853Z,74.46
2022-09-10T18:16:46.802Z,74.71
2022-09-10T18:19:17.239Z,75.00
2022-09-10T18:21:47.205Z,75.26
2022-09-10T18:24:24.198Z,75.55
2022-09-10T18:26:57.265Z,75.56
2022-09-10T18:29:30.076Z,75.74
2022-09-10T18:32:02.976Z,76.17
2022-09-10T18:34:31.266Z,76.63
2022-09-10T18:37:01.903Z,77.16
2022-09-10T18:39:32.536Z,77.51
2022-09-10T18:42:01.050Z,77.62
2022-09-10T18:44:33.361Z,77.77
2022-09-10T18:47:01.108Z,78.24
2022-09-10T18:49:29.740Z,78.24
2022-09-10T18:51:57.643Z,78.25
2022-09-10T18:54:29.532Z,78.45
2022-09-10T18:56:58.286Z,78.87
2022-09-10T18:59:26.630Z,79.11
2022-09-10T19:01:55.884Z,79.37
2022-09-10T19:04:28.277Z,79.74
2022-09-10T19:06:57.330Z,79.90
2022-09-10T19:09:28.454Z,79.94
2022-09-10T19:11:59.228Z,80.12
2022-09-10T19:14:30.516Z,80.27
2022-09-10T19:17:01.193Z,80.44
2022-09-10T19:19:36.283Z,80.69
2022-09-10T19:22:10.620Z,80.89
2022-09-10T19:24:53.943Z,81.13
2022-09-10T19:27:24.009Z,80.93
2022-09-10T19:29:51.907Z,81.05
2022-09-10T19:32:20.123Z,81.31
2022-09-10T19:34:51.949Z,81.42
2022-09-10T19:37:19.859Z,81.51
2022-09-10T19:39:47.754Z,81.62
2022-09-10T19:42:15.525Z,81.70
2022-09-10T19:44:43.643Z,81.85
2022-09-10T19:47:11.725Z,81.94
2022-09-10T19:49:39.467Z,82.06
2022-09-10T19:52:07.290Z,81.99
2022-09-10T19:54:35.094Z,81.97
2022-09-10T19:57:02.734Z,82.07
2022-09-10T19:59:30.514Z,82.12
2022-09-10T20:01:58.410Z,82.23
2022-09-10T20:04:27.600Z,82.36
2022-09-10T20:06:55.233Z,82.30
2022-09-10T20:09:22.993Z,82.44
2022-09-10T20:11:51.083Z,82.44
2022-09-10T20:14:19.590Z,82.59
2022-09-10T20:16:48.611Z,82.61
2022-09-10T20:19:18.381Z,82.63
2022-09-10T20:21:47.496Z,82.78
2022-09-10T20:24:16.125Z,82.97
2022-09-10T20:26:46.375Z,82.91
2022-09-10T20:29:18.142Z,82.89
2022-09-10T20:31:46.973Z,82.98
2022-09-10T20:34:19.441Z,82.94
2022-09-10T20:36:51.228Z,83.10
2022-09-10T20:39:25.097Z,83.25
2022-09-10T20:41:53.411Z,83.40
2022-09-10T20:44:21.050Z,83.42
2022-09-10T20:46:48.839Z,83.47
2022-09-10T20:49:17.557Z,83.65
2022-09-10T20:51:45.460Z,83.74
2022-09-10T20:54:17.136Z,83.86
2022-09-10T20:56:45.954Z,83.82
2022-09-10T20:59:16.406Z,83.67
2022-09-10T21:01:46.255Z,83.60
2022-09-10T21:04:15.031Z,83.38
2022-09-10T21:06:43.320Z,83.47
2022-09-10T21:09:12.661Z,83.57
2022-09-10T21:11:40.769Z,83.69
2022-09-10T21:14:08.950Z,83.74
2022-09-10T21:16:41.297Z,83.72
2022-09-10T21:19:15.295Z,83.56
2022-09-10T21:21:48.642Z,83.46
2022-09-10T21:24:20.136Z,83.51
2022-09-10T21:26:49.951Z,83.74
2022-09-10T21:29:20.548Z,83.74
2022-09-10T21:31:50.663Z,83.65
2022-09-10T21:34:19.282Z,83.79
2022-09-10T21:36:47.027Z,83.83
2022-09-10T21:39:17.384Z,83.74
2022-09-10T21:41:49.092Z,83.92
2022-09-10T21:44:21.088Z,84.17
2022-09-10T21:46:50.061Z,84.16
2022-09-10T21:49:18.868Z,83.99
2022-09-10T21:51:46.973Z,84.00
2022-09-10T21:54:21.342Z,84.23
2022-09-10T21:56:51.188Z,84.52
2022-09-10T21:59:21.214Z,84.77
2022-09-10T22:01:49.512Z,84.31
2022-09-10T22:04:22.408Z,84.31
2022-09-10T22:06:51.938Z,84.18
2022-09-10T22:09:20.738Z,84.20
2022-09-10T22:11:54.026Z,84.28
2022-09-10T22:14:24.627Z,84.46
2022-09-10T22:16:52.621Z,84.53
2022-09-10T22:19:24.320Z,84.66
2022-09-10T22:21:54.139Z,84.76
2022-09-10T22:24:22.170Z,84.87
2022-09-10T22:26:50.173Z,84.77
2022-09-10T22:29:20.343Z,84.81
2022-09-10T22:31:49.565Z,84.80
2022-09-10T22:34:18.382Z,85.08
2022-09-10T22:36:48.107Z,85.08
2022-09-10T22:39:22.191Z,85.20
2022-09-10T22:41:51.397Z,85.42
2022-09-10T22:44:19.946Z,85.59
2022-09-10T22:46:48.216Z,85.59
2022-09-10T22:49:17.097Z,85.70
2022-09-10T22:51:45.080Z,86.05
2022-09-10T22:54:13.363Z,86.10
2022-09-10T22:56:42.024Z,85.95
2022-09-10T22:59:13.955Z,85.82
2022-09-10T23:01:47.434Z,85.76
2022-09-10T23:04:15.746Z,85.66
2022-09-10T23:06:43.410Z,85.66
2022-09-10T23:09:14.715Z,85.47
2022-09-10T23:11:44.404Z,85.62
2022-09-10T23:14:19.087Z,85.65
2022-09-10T23:16:49.922Z,85.82
2022-09-10T23:19:24.539Z,86.03
2022-09-10T23:21:55.121Z,85.92
2022-09-10T23:24:26.327Z,85.91
2022-09-10T23:26:54.626Z,86.08
2022-09-10T23:29:24.057Z,85.87
2022-09-10T23:31:54.241Z,85.71
2022-09-10T23:34:23.163Z,85.60
2022-09-10T23:36:52.380Z,85.64
2022-09-10T23:39:23.712Z,85.70
2022-09-10T23:41:53.709Z,85.93
2022-09-10T23:44:22.719Z,85.90
2022-09-10T23:46:50.681Z,85.91
2022-09-10T23:49:18.382Z,85.99
2022-09-10T23:51:46.306Z,86.17
2022-09-10T23:54:14.382Z,86.00
2022-09-10T23:56:42.301Z,85.80
2022-09-10T23:59:11.421Z,85.69
